EmailTwitter


Observations de surface / Québec / CYQB (71714)

Régions: Québec | Canada | États-Unis | Europe | France | UK | Ailleurs
Station
Affichage
Infos & localisation pour CYQB (71714) | Aide pour décoder les METARs

Observations prises le 2018-11-19 à 11H42 UTC à QUEBEC A, QB (CYQB)

Etat du ciel: couvert.

Obstacle(s) à la visibilité: faible neige.

Température: -8.0 Celsius

Point de rosée: -11.0 Celsius

Humidité relative: 79%

Facteur vent: -11.

Vents: Nord-nord-ouest à 6 km/h ou 3 noeuds.

Pression au niveau moyen de la mer: 102.06 kilopascals.

Calage altimétrique: 102.00 kilopascals ou 30.12 pouces de mercure.

Visibilité horizontale: 4.00 milles terrestres ou 6.40 kilomètres.

Hauteur du plafond: 1219 mètres ( 4000 pieds ).

Observation METAR:

CYQB 191142Z 34003KT 4SM -SN OVC040 M08/M11 A3012 RMK SN4SC4 VIS NE 8 SLP206=